Time;durP1;ratioP1;P1;durP2;ratioP2;P2;SDS_P1;SDS_P2;PMS_P1;PMS_P2;Temp;Humidity;BMP_temperature;BMP_pressure;BME280_temperature;BME280_humidity;BME280_pressure;Samples;Min_cycle;Max_cycle;Signal;HPM_P1;HPM_P2
2022/03/17 00:00:22;;;;;;;1.47;1.37;;;4.80;99.90;;;;;;5027221;28;20203;-88
2022/03/17 00:02:47;;;;;;;1.00;0.90;;;4.80;99.90;;;;;;5023215;28;20195;-87
2022/03/17 00:05:13;;;;;;;2.03;1.60;;;4.80;99.90;;;;;;5038216;28;20272;-88
2022/03/17 00:07:41;;;;;;;3.20;2.60;;;4.80;99.90;;;;;;5029162;28;20240;-87
2022/03/17 00:10:09;;;;;;;1.50;1.40;;;4.80;99.90;;;;;;5033467;28;20183;-87
2022/03/17 00:12:35;;;;;;;1.00;0.90;;;4.70;99.90;;;;;;5025687;28;20536;-87
2022/03/17 00:15:01;;;;;;;1.37;1.27;;;4.70;99.90;;;;;;5049938;28;20613;-90
2022/03/17 00:17:29;;;;;;;2.50;2.30;;;4.70;99.90;;;;;;5025546;28;20191;-87
2022/03/17 00:19:54;;;;;;;1.47;1.37;;;4.70;99.90;;;;;;5025905;28;20446;-88
2022/03/17 00:22:20;;;;;;;1.30;1.20;;;4.70;99.90;;;;;;5027726;28;20449;-88
2022/03/17 00:24:46;;;;;;;3.60;1.97;;;4.70;99.90;;;;;;5025757;28;20314;-88
2022/03/17 00:27:12;;;;;;;2.83;2.70;;;4.70;99.90;;;;;;5030212;28;20186;-89
2022/03/17 00:29:39;;;;;;;1.10;1.00;;;4.70;99.90;;;;;;5028564;28;20456;-87
2022/03/17 00:32:06;;;;;;;1.00;0.90;;;4.80;99.90;;;;;;5024341;28;20183;-88
2022/03/17 00:34:33;;;;;;;0.90;0.80;;;4.70;99.90;;;;;;5025820;28;21226;-88
2022/03/17 00:36:59;;;;;;;0.80;0.70;;;4.80;99.90;;;;;;5026534;28;20541;-88
2022/03/17 00:39:25;;;;;;;2.33;2.13;;;4.80;99.90;;;;;;5028131;28;20545;-88
2022/03/17 00:41:51;;;;;;;1.57;1.47;;;4.90;99.90;;;;;;5028167;28;20191;-87
2022/03/17 00:44:17;;;;;;;5.40;1.87;;;4.90;99.90;;;;;;5031444;28;20245;-90
2022/03/17 00:46:42;;;;;;;1.20;1.10;;;4.90;99.90;;;;;;5023912;28;20445;-88
2022/03/17 00:49:08;;;;;;;0.90;0.80;;;4.90;99.90;;;;;;5009976;28;20186;-88
2022/03/17 00:51:34;;;;;;;2.37;2.17;;;5.00;99.90;;;;;;5027085;28;20537;-87
2022/03/17 00:53:59;;;;;;;0.90;0.80;;;5.00;99.90;;;;;;5029310;28;20199;-87
2022/03/17 00:56:26;;;;;;;1.43;1.33;;;5.00;99.90;;;;;;5025802;28;20434;-87
2022/03/17 00:58:52;;;;;;;0.80;0.70;;;4.90;99.90;;;;;;5028604;28;20218;-87
2022/03/17 01:01:18;;;;;;;0.90;0.77;;;4.90;99.90;;;;;;5014348;28;20493;-88
2022/03/17 01:03:45;;;;;;;1.47;1.37;;;4.90;99.90;;;;;;5027109;28;20492;-87
2022/03/17 01:06:10;;;;;;;1.27;1.17;;;4.90;99.90;;;;;;5028866;28;20483;-88
2022/03/17 01:08:37;;;;;;;0.93;0.83;;;4.90;99.90;;;;;;5030183;28;20529;-87
2022/03/17 01:11:04;;;;;;;1.53;1.27;;;4.90;99.90;;;;;;5027714;28;20191;-87
2022/03/17 01:13:29;;;;;;;2.10;1.97;;;4.90;99.90;;;;;;5007777;28;21071;-88
2022/03/17 01:15:55;;;;;;;1.57;1.47;;;4.90;99.90;;;;;;5024757;28;20552;-88
2022/03/17 01:18:21;;;;;;;0.80;0.70;;;4.90;99.90;;;;;;5026609;28;20538;-88
2022/03/17 01:20:48;;;;;;;1.20;1.00;;;4.90;99.90;;;;;;5027008;28;20191;-88
2022/03/17 01:23:14;;;;;;;1.40;1.10;;;4.90;99.90;;;;;;5019656;28;20482;-87
2022/03/17 01:25:39;;;;;;;0.90;0.80;;;4.90;99.90;;;;;;5018487;28;20442;-87
2022/03/17 01:28:05;;;;;;;1.00;0.90;;;4.90;99.90;;;;;;5022345;28;20193;-87
2022/03/17 01:30:31;;;;;;;1.30;1.20;;;4.90;99.90;;;;;;5023436;28;20266;-87
2022/03/17 01:32:56;;;;;;;0.90;0.70;;;4.80;99.90;;;;;;5027475;28;20655;-88
2022/03/17 01:35:22;;;;;;;4.13;2.70;;;4.90;99.90;;;;;;5010298;28;20206;-87
2022/03/17 01:37:47;;;;;;;1.20;1.10;;;4.90;99.90;;;;;;5025432;28;20610;-87
2022/03/17 01:40:13;;;;;;;1.70;1.60;;;4.90;99.90;;;;;;5028578;28;20198;-87
2022/03/17 01:42:39;;;;;;;1.10;1.00;;;4.90;99.90;;;;;;5029940;28;20186;-88
2022/03/17 01:45:06;;;;;;;1.40;1.20;;;4.80;99.90;;;;;;5026541;28;20726;-88
2022/03/17 01:47:33;;;;;;;4.20;2.93;;;4.90;99.90;;;;;;5031034;28;21253;-88
2022/03/17 01:50:11;;;;;;;3.30;1.37;;;4.90;99.90;;;;;;5040242;28;20442;-88
2022/03/17 01:52:38;;;;;;;21.50;2.27;;;4.90;99.90;;;;;;5028156;28;20449;-88
2022/03/17 01:55:05;;;;;;;1.83;1.73;;;4.90;99.90;;;;;;5024431;28;20470;-90
2022/03/17 01:57:31;;;;;;;2.00;1.90;;;4.90;99.90;;;;;;5010552;28;20442;-87
2022/03/17 01:59:58;;;;;;;1.13;1.00;;;4.90;99.90;;;;;;5026544;28;20454;-89
2022/03/17 02:02:25;;;;;;;1.00;0.90;;;4.80;99.90;;;;;;5030176;28;20432;-88
2022/03/17 02:04:51;;;;;;;1.27;1.17;;;4.90;99.90;;;;;;5027848;28;20489;-89
2022/03/17 02:07:17;;;;;;;1.37;1.27;;;4.80;99.90;;;;;;5019798;28;20639;-89
2022/03/17 02:09:44;;;;;;;2.97;2.80;;;4.80;99.90;;;;;;5027161;28;20454;-87
2022/03/17 02:15:08;;;;;;;1.10;1.00;;;4.80;99.90;;;;;;5019237;28;20450;-88
2022/03/17 02:17:39;;;;;;;5.90;1.60;;;4.80;99.90;;;;;;5028185;28;20434;-87
2022/03/17 02:20:07;;;;;;;4.20;3.73;;;4.80;99.90;;;;;;5029086;28;20472;-88
2022/03/17 02:22:35;;;;;;;2.60;2.40;;;4.80;99.90;;;;;;5025217;28;20449;-88
2022/03/17 02:27:46;;;;;;;1.90;1.80;;;4.80;99.90;;;;;;5024561;28;20481;-88
2022/03/17 02:30:16;;;;;;;1.33;1.23;;;4.70;99.90;;;;;;5029277;28;20474;-88
2022/03/17 02:32:42;;;;;;;1.03;0.93;;;4.70;99.90;;;;;;5013389;28;20446;-87
2022/03/17 02:35:13;;;;;;;2.50;2.30;;;4.70;99.90;;;;;;5031650;28;20486;-87
2022/03/17 02:37:39;;;;;;;4.50;2.57;;;4.70;99.90;;;;;;5032641;28;20252;-87
2022/03/17 02:40:08;;;;;;;0.80;0.80;;;4.70;99.90;;;;;;5032131;28;20438;-89
2022/03/17 02:42:34;;;;;;;1.63;1.53;;;4.70;99.90;;;;;;5032012;28;20442;-88
2022/03/17 02:45:01;;;;;;;2.60;2.40;;;4.80;99.90;;;;;;5023562;28;21229;-87
2022/03/17 02:47:27;;;;;;;1.47;1.37;;;4.70;99.90;;;;;;5030923;28;20456;-88
2022/03/17 02:49:56;;;;;;;5.10;2.63;;;4.70;99.90;;;;;;5031444;28;20454;-87
2022/03/17 02:52:23;;;;;;;1.40;1.30;;;4.80;99.90;;;;;;5030624;28;21375;-88
2022/03/17 02:54:49;;;;;;;1.97;1.73;;;4.80;99.90;;;;;;5036628;28;20454;-87
2022/03/17 02:57:15;;;;;;;5.57;2.70;;;4.80;99.90;;;;;;5012010;28;20500;-87
2022/03/17 02:59:41;;;;;;;0.90;0.80;;;4.80;99.90;;;;;;5031532;28;20454;-88
2022/03/17 03:02:06;;;;;;;2.00;1.90;;;4.80;99.90;;;;;;5028071;28;20192;-87
2022/03/17 03:04:35;;;;;;;2.80;1.37;;;4.80;99.90;;;;;;5011082;28;20491;-88
2022/03/17 03:07:06;;;;;;;1.50;1.40;;;4.80;99.90;;;;;;5025607;28;20191;-88
2022/03/17 03:09:32;;;;;;;0.97;0.87;;;4.90;99.90;;;;;;5027280;28;20461;-90
2022/03/17 03:11:57;;;;;;;3.10;2.90;;;4.90;99.90;;;;;;5038966;28;20450;-88
2022/03/17 03:14:23;;;;;;;6.37;5.17;;;4.90;99.90;;;;;;5029720;28;20807;-88
2022/03/17 03:16:49;;;;;;;2.27;2.07;;;4.90;99.90;;;;;;5028036;28;20233;-87
2022/03/17 03:19:15;;;;;;;4.30;1.73;;;4.90;99.90;;;;;;5028775;28;20187;-88
2022/03/17 03:21:43;;;;;;;3.70;3.53;;;5.00;99.90;;;;;;5027529;28;20485;-89
2022/03/17 03:24:13;;;;;;;0.90;0.70;;;5.00;99.90;;;;;;5027896;28;20350;-88
2022/03/17 03:26:40;;;;;;;1.60;1.50;;;5.00;99.90;;;;;;5029524;28;20438;-89
2022/03/17 03:29:14;;;;;;;1.00;0.90;;;4.90;99.90;;;;;;5003414;28;20481;-90
2022/03/17 03:31:41;;;;;;;1.00;0.90;;;5.00;99.90;;;;;;5028844;28;20466;-88
2022/03/17 03:34:06;;;;;;;3.80;3.60;;;5.00;99.90;;;;;;5028806;28;20456;-88
2022/03/17 03:39:16;;;;;;;1.57;1.47;;;5.00;99.90;;;;;;5030057;28;20261;-88
2022/03/17 03:41:41;;;;;;;1.40;1.30;;;5.10;99.90;;;;;;5030492;28;20497;-87
2022/03/17 03:44:07;;;;;;;1.83;1.73;;;5.10;99.90;;;;;;5028418;28;20243;-88
2022/03/17 03:46:33;;;;;;;1.60;1.50;;;5.10;99.90;;;;;;5029290;28;20662;-88
2022/03/17 03:48:58;;;;;;;0.90;0.80;;;5.10;99.90;;;;;;5012946;28;20190;-88
2022/03/17 03:51:23;;;;;;;1.17;1.03;;;5.10;99.90;;;;;;5009707;28;20253;-87
2022/03/17 03:56:33;;;;;;;1.10;1.00;;;5.20;99.90;;;;;;5030351;28;20751;-87
2022/03/17 03:59:02;;;;;;;2.50;2.40;;;5.20;99.90;;;;;;5033990;28;20453;-89
2022/03/17 04:01:27;;;;;;;2.87;2.03;;;5.20;99.90;;;;;;5028110;28;20180;-89
2022/03/17 04:03:54;;;;;;;1.47;1.33;;;5.30;99.90;;;;;;5026383;28;20808;-87
2022/03/17 04:06:19;;;;;;;3.10;1.40;;;5.30;99.90;;;;;;5027969;28;20275;-89
2022/03/17 04:08:45;;;;;;;4.73;3.03;;;5.30;99.90;;;;;;5028568;28;20923;-88
2022/03/17 04:11:10;;;;;;;1.17;1.07;;;5.30;99.90;;;;;;5028027;28;20188;-90
2022/03/17 04:13:36;;;;;;;2.70;2.50;;;5.30;99.90;;;;;;5025210;28;20175;-89
2022/03/17 04:16:01;;;;;;;2.10;2.00;;;5.30;99.90;;;;;;5029973;28;20664;-88
2022/03/17 04:18:27;;;;;;;1.57;1.47;;;5.30;99.90;;;;;;5028915;28;20655;-88
2022/03/17 04:20:52;;;;;;;1.10;0.97;;;5.40;99.90;;;;;;5026137;28;20203;-89
2022/03/17 04:23:18;;;;;;;4.93;4.00;;;5.40;99.90;;;;;;5033200;28;20218;-88
2022/03/17 04:25:43;;;;;;;9.30;2.40;;;5.40;99.90;;;;;;5027484;28;20183;-89
2022/03/17 04:28:09;;;;;;;3.37;1.83;;;5.40;99.90;;;;;;5029365;28;20198;-87
2022/03/17 04:30:36;;;;;;;5.83;3.97;;;5.40;99.90;;;;;;5025493;28;20243;-88
2022/03/17 04:33:01;;;;;;;1.57;1.27;;;5.50;99.90;;;;;;5026087;28;20249;-89
2022/03/17 04:35:27;;;;;;;1.53;1.43;;;5.50;99.90;;;;;;5012407;28;20652;-88
2022/03/17 04:37:52;;;;;;;1.37;1.27;;;5.50;99.90;;;;;;5022843;28;20233;-88
2022/03/17 04:40:18;;;;;;;1.37;1.27;;;5.50;99.90;;;;;;5029373;28;20659;-88
2022/03/17 04:42:43;;;;;;;0.90;0.80;;;5.50;99.90;;;;;;5027197;28;20659;-87
2022/03/17 04:45:09;;;;;;;2.10;2.00;;;5.50;99.90;;;;;;5017377;28;20242;-88
2022/03/17 04:47:35;;;;;;;1.90;1.70;;;5.60;99.90;;;;;;5019089;28;20181;-89
2022/03/17 04:50:00;;;;;;;1.37;1.27;;;5.60;99.90;;;;;;5013916;28;20271;-89
2022/03/17 04:55:10;;;;;;;1.60;1.50;;;5.70;99.90;;;;;;5006898;28;20187;-88
2022/03/17 04:57:35;;;;;;;2.37;2.27;;;5.60;99.90;;;;;;4999551;28;20435;-89
2022/03/17 05:00:01;;;;;;;3.37;3.17;;;5.70;99.90;;;;;;5008003;28;20292;-89
2022/03/17 05:02:26;;;;;;;4.20;1.67;;;5.60;99.90;;;;;;5006867;28;20188;-89
2022/03/17 05:04:52;;;;;;;1.90;1.60;;;5.70;99.90;;;;;;5014892;28;20230;-89
2022/03/17 05:07:18;;;;;;;2.13;1.37;;;5.70;99.90;;;;;;4991650;28;20191;-90
2022/03/17 05:09:44;;;;;;;4.30;1.40;;;5.70;99.90;;;;;;5009977;28;20458;-91
2022/03/17 05:12:09;;;;;;;3.00;2.40;;;5.70;99.90;;;;;;5011146;28;20185;-88
2022/03/17 05:14:35;;;;;;;2.80;2.30;;;5.80;99.90;;;;;;4997111;28;20253;-89
2022/03/17 05:17:00;;;;;;;1.77;1.23;;;5.80;99.90;;;;;;5011895;28;20535;-91
2022/03/17 05:19:26;;;;;;;7.33;2.50;;;5.80;99.90;;;;;;5011201;28;20278;-89
2022/03/17 05:21:52;;;;;;;1.70;1.60;;;5.80;99.90;;;;;;5011990;28;20196;-89
2022/03/17 05:24:18;;;;;;;1.33;1.23;;;5.90;99.90;;;;;;5013209;28;20670;-92
2022/03/17 05:26:45;;;;;;;1.00;0.90;;;6.00;99.90;;;;;;4993040;28;20452;-88
2022/03/17 05:29:12;;;;;;;2.10;1.70;;;6.00;99.90;;;;;;5008716;28;20279;-89
2022/03/17 05:31:37;;;;;;;3.83;1.10;;;6.00;99.90;;;;;;5010593;28;20530;-91
2022/03/17 05:34:03;;;;;;;3.83;2.80;;;6.00;99.90;;;;;;5007057;28;20551;-88
2022/03/17 05:36:29;;;;;;;2.87;1.90;;;6.10;99.90;;;;;;5007431;28;20268;-89
2022/03/17 05:38:54;;;;;;;0.80;0.80;;;6.10;99.90;;;;;;5006972;28;20200;-88
2022/03/17 05:41:21;;;;;;;1.10;1.00;;;6.10;99.90;;;;;;5008862;28;20211;-89
2022/03/17 05:43:47;;;;;;;1.90;1.80;;;6.10;99.90;;;;;;5017814;28;20262;-90
2022/03/17 05:46:12;;;;;;;1.27;1.17;;;6.20;99.90;;;;;;5035090;28;20881;-88
2022/03/17 05:48:40;;;;;;;1.63;1.53;;;6.20;99.90;;;;;;5027342;28;20188;-88
2022/03/17 05:51:05;;;;;;;1.50;1.40;;;6.20;99.90;;;;;;5031471;28;20175;-90
2022/03/17 05:53:31;;;;;;;3.93;3.53;;;6.20;99.90;;;;;;5028196;28;20453;-90
2022/03/17 05:55:56;;;;;;;2.17;2.00;;;6.20;99.90;;;;;;5024619;28;20602;-88
2022/03/17 05:58:22;;;;;;;2.90;2.60;;;6.20;99.90;;;;;;5026884;28;20226;-90
2022/03/17 06:00:47;;;;;;;3.30;3.00;;;6.30;99.90;;;;;;5028520;28;20240;-87
2022/03/17 06:03:13;;;;;;;3.50;3.20;;;6.30;99.90;;;;;;5031816;28;20655;-90
2022/03/17 06:05:38;;;;;;;1.93;1.10;;;6.30;99.90;;;;;;5031306;28;20226;-89
2022/03/17 06:08:05;;;;;;;6.20;3.33;;;6.40;99.90;;;;;;5033519;28;20205;-90
2022/03/17 06:10:32;;;;;;;1.33;1.23;;;6.30;99.90;;;;;;5034297;28;20215;-88
2022/03/17 06:13:00;;;;;;;7.10;4.67;;;6.30;99.90;;;;;;5024735;28;20442;-89
2022/03/17 06:15:26;;;;;;;3.13;2.30;;;6.30;99.90;;;;;;5025036;28;20438;-88
2022/03/17 06:17:59;;;;;;;1.20;1.10;;;6.30;99.90;;;;;;5030987;28;20524;-88
2022/03/17 06:20:30;;;;;;;3.30;3.00;;;6.30;99.90;;;;;;5038582;28;20515;-91
2022/03/17 06:22:58;;;;;;;6.63;5.00;;;6.40;99.90;;;;;;5031819;28;20855;-88
2022/03/17 06:25:26;;;;;;;5.27;4.77;;;6.40;99.90;;;;;;5025549;28;20613;-86
2022/03/17 06:27:52;;;;;;;2.67;2.50;;;6.40;99.90;;;;;;5037871;28;20441;-86
2022/03/17 06:30:20;;;;;;;4.43;4.07;;;6.50;99.90;;;;;;5028187;28;20458;-86
2022/03/17 06:32:46;;;;;;;1.43;1.33;;;6.50;99.90;;;;;;5023088;28;20807;-89
2022/03/17 06:35:20;;;;;;;2.10;2.00;;;6.50;99.90;;;;;;5026911;28;20453;-91
2022/03/17 06:37:48;;;;;;;0.80;0.70;;;6.50;99.90;;;;;;5028824;28;20564;-88
2022/03/17 06:40:14;;;;;;;5.33;3.90;;;6.50;99.90;;;;;;5010833;28;20478;-88
2022/03/17 06:42:40;;;;;;;3.17;2.97;;;6.50;99.90;;;;;;5033621;28;20609;-87
2022/03/17 06:45:06;;;;;;;5.27;3.47;;;6.40;99.90;;;;;;5028997;28;20584;-87
2022/03/17 06:47:32;;;;;;;3.27;3.00;;;6.50;99.90;;;;;;5028612;28;21008;-90
2022/03/17 06:49:58;;;;;;;2.70;2.50;;;6.50;99.90;;;;;;5013456;28;20483;-91
2022/03/17 06:52:23;;;;;;;2.00;1.90;;;6.50;99.90;;;;;;5028623;28;20207;-87
2022/03/17 06:54:52;;;;;;;1.87;1.30;;;6.50;99.90;;;;;;5029576;28;20517;-87
2022/03/17 06:57:18;;;;;;;5.07;2.50;;;6.50;99.90;;;;;;5030562;28;20282;-90
2022/03/17 06:59:45;;;;;;;2.07;1.97;;;6.60;99.90;;;;;;5014391;28;20466;-88
2022/03/17 07:02:10;;;;;;;8.80;2.13;;;6.60;99.90;;;;;;5014291;28;20456;-88
2022/03/17 07:04:36;;;;;;;5.10;2.60;;;6.60;99.90;;;;;;5010446;28;20478;-88
2022/03/17 07:07:01;;;;;;;13.83;3.13;;;6.60;99.90;;;;;;5028903;28;20183;-88
2022/03/17 07:09:27;;;;;;;1.17;1.07;;;6.70;99.90;;;;;;5030214;28;20192;-87
2022/03/17 07:11:52;;;;;;;1.93;1.50;;;6.70;99.90;;;;;;5012315;28;20191;-88
2022/03/17 07:14:18;;;;;;;3.13;1.47;;;6.70;99.90;;;;;;5015042;28;20187;-87
2022/03/17 07:16:43;;;;;;;3.57;3.37;;;6.70;99.90;;;;;;5029618;28;20274;-88
2022/03/17 07:19:09;;;;;;;1.43;1.33;;;6.70;99.90;;;;;;5029108;28;20229;-86
2022/03/17 07:21:35;;;;;;;1.53;1.43;;;6.80;99.90;;;;;;5030141;28;20610;-92
2022/03/17 07:24:00;;;;;;;2.43;2.33;;;6.80;99.90;;;;;;5009421;28;20872;-90
2022/03/17 07:26:27;;;;;;;1.73;1.20;;;6.80;99.90;;;;;;5027349;28;20194;-86
2022/03/17 07:28:54;;;;;;;3.63;2.13;;;6.90;99.90;;;;;;5025918;28;20203;-90
2022/03/17 07:31:20;;;;;;;3.93;3.73;;;7.00;99.90;;;;;;5027500;28;20913;-87
2022/03/17 07:33:48;;;;;;;4.70;3.23;;;7.00;99.90;;;;;;5011592;28;20454;-88
2022/03/17 07:36:13;;;;;;;3.20;2.90;;;7.10;99.90;;;;;;5011028;28;20446;-88
2022/03/17 07:38:38;;;;;;;9.63;2.27;;;7.20;99.90;;;;;;5031018;28;20442;-89
2022/03/17 07:41:04;;;;;;;2.17;1.23;;;7.20;99.90;;;;;;5029687;28;20192;-88
2022/03/17 07:43:29;;;;;;;1.37;1.27;;;7.20;99.90;;;;;;5024562;28;20233;-89
2022/03/17 07:45:55;;;;;;;3.17;2.97;;;7.20;99.90;;;;;;5030629;28;20231;-93
2022/03/17 07:48:21;;;;;;;2.97;2.77;;;7.30;99.90;;;;;;5025559;28;20255;-88
2022/03/17 07:50:46;;;;;;;2.17;2.00;;;7.30;99.90;;;;;;5028858;28;20214;-88
2022/03/17 07:53:12;;;;;;;3.70;2.70;;;7.30;99.90;;;;;;5027570;28;20203;-89
2022/03/17 07:55:38;;;;;;;1.53;1.43;;;7.20;99.90;;;;;;5007994;28;20669;-89
2022/03/17 07:58:04;;;;;;;4.87;4.47;;;7.20;99.90;;;;;;5028167;28;20191;-89
2022/03/17 08:00:30;;;;;;;4.80;3.83;;;7.20;99.90;;;;;;5023761;28;20280;-88
2022/03/17 08:02:55;;;;;;;1.40;1.13;;;7.20;99.90;;;;;;5013538;28;20495;-90
2022/03/17 08:05:21;;;;;;;2.63;2.00;;;7.20;99.90;;;;;;5006746;28;20231;-87
2022/03/17 08:07:46;;;;;;;1.67;1.10;;;7.30;99.90;;;;;;5026177;28;20203;-88
2022/03/17 08:10:13;;;;;;;11.10;3.53;;;7.20;99.90;;;;;;5012241;28;20191;-88
2022/03/17 08:12:39;;;;;;;3.90;3.17;;;7.30;99.90;;;;;;5026269;28;20928;-87
2022/03/17 08:15:05;;;;;;;9.07;4.10;;;7.30;99.90;;;;;;5027260;28;20536;-88
2022/03/17 08:17:31;;;;;;;1.40;1.30;;;7.30;99.90;;;;;;5029612;28;20272;-87
2022/03/17 08:19:57;;;;;;;4.30;4.00;;;7.30;99.90;;;;;;5008183;28;20439;-86
2022/03/17 08:22:24;;;;;;;2.17;2.07;;;7.30;99.90;;;;;;5029078;28;20449;-88
2022/03/17 08:24:50;;;;;;;5.70;1.37;;;7.30;99.90;;;;;;5019556;28;20585;-88
2022/03/17 08:27:15;;;;;;;3.77;3.47;;;7.30;99.90;;;;;;5022177;28;20521;-87
2022/03/17 08:29:42;;;;;;;3.80;2.87;;;7.40;99.90;;;;;;5010740;28;20315;-90
2022/03/17 08:32:08;;;;;;;2.70;1.73;;;7.40;99.90;;;;;;5025720;28;20189;-87
2022/03/17 08:34:34;;;;;;;0.90;0.70;;;7.30;99.90;;;;;;5029008;28;20454;-88
2022/03/17 08:37:00;;;;;;;2.07;1.70;;;7.30;99.90;;;;;;5027129;28;20438;-89
2022/03/17 08:39:26;;;;;;;0.80;0.70;;;7.40;99.90;;;;;;5011878;28;20191;-89
2022/03/17 08:41:52;;;;;;;1.27;1.17;;;7.40;99.90;;;;;;5030058;28;20238;-89
2022/03/17 08:44:19;;;;;;;4.93;1.90;;;7.40;99.90;;;;;;5008483;28;21088;-87
2022/03/17 08:49:29;;;;;;;3.83;2.67;;;7.40;99.90;;;;;;5030868;28;20595;-90
2022/03/17 08:51:59;;;;;;;2.23;2.13;;;7.40;99.90;;;;;;5029509;28;21384;-89
2022/03/17 08:54:27;;;;;;;7.20;2.50;;;7.40;99.90;;;;;;5032941;28;20682;-89
2022/03/17 08:57:00;;;;;;;3.77;3.47;;;7.40;99.90;;;;;;5025482;28;20430;-90
2022/03/17 08:59:31;;;;;;;1.80;1.70;;;7.50;99.90;;;;;;5026727;28;20470;-90
2022/03/17 09:02:01;;;;;;;2.23;2.03;;;7.50;99.90;;;;;;5025287;28;20539;-88
2022/03/17 09:04:28;;;;;;;2.53;2.33;;;7.50;99.90;;;;;;5024933;28;21279;-92
2022/03/17 09:06:58;;;;;;;0.90;0.77;;;7.50;99.90;;;;;;5016140;28;20449;-88
2022/03/17 09:09:25;;;;;;;2.40;2.30;;;7.60;99.90;;;;;;5024577;28;20450;-91
2022/03/17 09:11:50;;;;;;;1.17;0.80;;;7.60;99.90;;;;;;5030136;28;20529;-89
2022/03/17 09:14:16;;;;;;;1.87;1.77;;;7.60;99.90;;;;;;5022874;28;20579;-90
2022/03/17 09:16:41;;;;;;;0.90;0.80;;;7.60;99.90;;;;;;5028700;28;20714;-90
2022/03/17 09:19:07;;;;;;;1.40;1.27;;;7.70;99.90;;;;;;5027732;28;20195;-90
2022/03/17 09:21:32;;;;;;;2.40;2.20;;;7.70;99.90;;;;;;5027800;28;20191;-89
2022/03/17 09:23:59;;;;;;;6.50;2.77;;;7.70;99.90;;;;;;5028177;28;20220;-89
2022/03/17 09:26:26;;;;;;;1.50;1.10;;;7.70;99.90;;;;;;5031748;28;20171;-88
2022/03/17 09:28:52;;;;;;;5.20;4.70;;;7.70;99.90;;;;;;5031643;28;20438;-90
2022/03/17 09:31:18;;;;;;;2.30;2.10;;;7.70;99.90;;;;;;5032284;28;20444;-88
2022/03/17 09:33:45;;;;;;;6.30;3.13;;;7.60;99.90;;;;;;5030531;28;20175;-89
2022/03/17 09:36:11;;;;;;;3.93;3.53;;;7.50;99.90;;;;;;5012685;28;20529;-89
2022/03/17 09:38:36;;;;;;;6.47;4.83;;;7.30;99.90;;;;;;5025974;28;20844;-89
2022/03/17 09:41:23;;;;;;;3.70;3.40;;;7.30;99.90;;;;;;5039811;28;20481;-91
2022/03/17 09:43:48;;;;;;;9.50;2.63;;;7.20;99.90;;;;;;5001535;28;20311;-90
2022/03/17 09:46:15;;;;;;;1.50;1.20;;;7.10;99.90;;;;;;5024843;28;20540;-89
2022/03/17 09:48:42;;;;;;;5.13;4.67;;;7.10;99.90;;;;;;5025393;28;20176;-89
2022/03/17 09:51:07;;;;;;;1.80;1.70;;;6.90;99.90;;;;;;5023899;28;20974;-90
2022/03/17 09:53:33;;;;;;;1.30;1.20;;;6.90;99.90;;;;;;5027981;28;20445;-90
2022/03/17 09:55:59;;;;;;;1.67;1.30;;;6.90;99.90;;;;;;5025870;28;20604;-89
2022/03/17 09:58:24;;;;;;;2.83;1.70;;;6.80;99.90;;;;;;5027527;28;20288;-91
2022/03/17 10:00:52;;;;;;;3.53;3.23;;;6.80;99.90;;;;;;5021620;28;20270;-90
2022/03/17 10:03:25;;;;;;;3.00;2.70;;;6.80;99.90;;;;;;5023224;28;20714;-90
2022/03/17 10:05:52;;;;;;;3.27;2.97;;;6.70;99.90;;;;;;5019839;28;20834;-88
2022/03/17 10:08:20;;;;;;;3.43;3.23;;;6.70;99.90;;;;;;5008934;28;20561;-89
2022/03/17 10:10:46;;;;;;;1.30;1.20;;;6.70;99.90;;;;;;5025448;28;20454;-90
2022/03/17 10:13:14;;;;;;;2.13;2.00;;;6.70;99.90;;;;;;5018304;28;20541;-90
2022/03/17 10:16:04;;;;;;;1.67;1.53;;;6.60;99.90;;;;;;5020401;28;20477;-89
2022/03/17 10:18:30;;;;;;;3.00;2.07;;;6.60;99.90;;;;;;5009719;28;20447;-89
2022/03/17 10:21:26;;;;;;;5.03;3.07;;;6.60;99.90;;;;;;5020398;28;20481;-91
2022/03/17 10:23:56;;;;;;;1.13;1.03;;;6.60;99.90;;;;;;5012879;28;20475;-91
2022/03/17 10:26:51;;;;;;;2.47;2.27;;;6.60;99.90;;;;;;5025328;28;20443;-91
2022/03/17 10:29:25;;;;;;;3.23;2.70;;;6.60;99.90;;;;;;5021394;28;20438;-93
2022/03/17 10:31:59;;;;;;;10.23;4.30;;;6.50;99.90;;;;;;5031610;28;20494;-93
2022/03/17 10:34:35;;;;;;;4.60;4.23;;;6.50;99.90;;;;;;5013785;28;20823;-92
2022/03/17 10:37:22;;;;;;;6.70;2.50;;;6.50;99.90;;;;;;5033615;28;20774;-92
2022/03/17 10:39:52;;;;;;;3.50;3.20;;;6.50;99.90;;;;;;5041977;28;20588;-89
2022/03/17 10:42:23;;;;;;;4.30;3.60;;;6.50;99.90;;;;;;5032314;28;20799;-90
2022/03/17 10:44:51;;;;;;;1.40;1.30;;;6.50;99.90;;;;;;5027542;28;20489;-92
2022/03/17 10:47:29;;;;;;;3.07;2.40;;;6.50;99.90;;;;;;5014675;28;20595;-91
2022/03/17 10:50:22;;;;;;;4.07;3.77;;;6.50;99.90;;;;;;5027872;28;20549;-92
2022/03/17 10:52:52;;;;;;;7.60;2.50;;;6.50;99.90;;;;;;5033018;28;20953;-92
2022/03/17 10:55:32;;;;;;;1.97;1.87;;;6.50;99.90;;;;;;5034628;28;20519;-91
2022/03/17 10:58:14;;;;;;;3.53;1.43;;;6.50;99.90;;;;;;5034110;28;20495;-93
2022/03/17 11:00:56;;;;;;;0.83;0.80;;;6.50;99.90;;;;;;5031720;28;20435;-93
2022/03/17 11:03:22;;;;;;;2.20;1.67;;;6.50;99.90;;;;;;5032726;28;20422;-93
2022/03/17 11:05:51;;;;;;;3.87;2.97;;;6.50;99.90;;;;;;5012311;28;20453;-91
2022/03/17 11:08:18;;;;;;;3.20;3.00;;;6.50;99.90;;;;;;5034311;28;20438;-93
2022/03/17 11:10:44;;;;;;;3.47;3.17;;;6.50;99.90;;;;;;5031915;28;20458;-93
2022/03/17 11:13:11;;;;;;;21.50;2.27;;;6.60;99.90;;;;;;5032568;28;20524;-92
2022/03/17 11:15:38;;;;;;;1.10;1.00;;;6.60;99.90;;;;;;5033220;28;20474;-93
2022/03/17 11:18:18;;;;;;;0.90;0.70;;;6.60;99.90;;;;;;5015906;28;20809;-92
2022/03/17 11:20:45;;;;;;;3.40;3.17;;;6.60;99.90;;;;;;5030431;28;20953;-88
2022/03/17 11:23:21;;;;;;;4.20;3.33;;;6.60;99.90;;;;;;5022014;28;20450;-87
2022/03/17 11:25:55;;;;;;;2.03;1.90;;;6.70;99.90;;;;;;5027701;28;20457;-88
2022/03/17 11:28:35;;;;;;;0.80;0.80;;;6.70;99.90;;;;;;5030627;28;20431;-87
2022/03/17 11:31:03;;;;;;;3.40;3.10;;;6.70;99.90;;;;;;5001931;28;20507;-87
2022/03/17 11:33:33;;;;;;;2.50;1.27;;;6.70;99.90;;;;;;5012750;28;20447;-86
2022/03/17 11:36:01;;;;;;;0.90;0.90;;;6.70;99.90;;;;;;5027583;28;20898;-87
2022/03/17 11:38:30;;;;;;;1.97;1.80;;;6.70;99.90;;;;;;5025295;28;20453;-86
2022/03/17 11:41:08;;;;;;;1.60;1.00;;;6.70;99.90;;;;;;5006783;28;20942;-87
2022/03/17 11:43:45;;;;;;;1.93;1.00;;;6.70;99.90;;;;;;5014455;28;21035;-87
2022/03/17 11:46:19;;;;;;;1.10;1.00;;;6.80;99.90;;;;;;5028629;28;20907;-87
2022/03/17 11:48:47;;;;;;;1.33;1.23;;;6.80;99.90;;;;;;5013217;28;20445;-87
2022/03/17 11:51:15;;;;;;;4.77;2.90;;;6.80;99.90;;;;;;5016689;28;22135;-87
2022/03/17 11:53:52;;;;;;;0.80;0.70;;;6.90;99.90;;;;;;5010668;28;20496;-87
2022/03/17 11:56:38;;;;;;;1.10;1.00;;;7.00;99.90;;;;;;5021526;28;20468;-87
2022/03/17 11:59:08;;;;;;;1.00;0.90;;;7.00;99.90;;;;;;5019734;28;20441;-88
2022/03/17 12:01:39;;;;;;;0.90;0.80;;;7.00;99.90;;;;;;5021616;28;20465;-88
2022/03/17 12:04:05;;;;;;;0.80;0.67;;;7.00;99.90;;;;;;5025898;28;21283;-87
2022/03/17 12:06:35;;;;;;;0.80;0.80;;;7.00;99.90;;;;;;5028637;28;20439;-87
2022/03/17 12:09:05;;;;;;;1.27;1.17;;;7.00;99.90;;;;;;5026701;28;20546;-87
2022/03/17 12:11:36;;;;;;;1.23;1.13;;;7.10;99.90;;;;;;5029042;28;20438;-90
2022/03/17 12:14:17;;;;;;;0.80;0.63;;;7.10;99.90;;;;;;5034313;28;20503;-88
2022/03/17 12:16:47;;;;;;;1.03;0.93;;;7.10;99.90;;;;;;5029568;28;20485;-88
2022/03/17 12:19:36;;;;;;;1.03;0.93;;;7.10;99.90;;;;;;5037561;28;20446;-87
2022/03/17 12:22:07;;;;;;;1.00;0.90;;;7.10;99.90;;;;;;5022234;28;20449;-86
2022/03/17 12:24:47;;;;;;;0.60;0.57;;;7.00;99.90;;;;;;5029770;28;20577;-87
2022/03/17 12:27:29;;;;;;;0.40;0.40;;;7.00;99.90;;;;;;5040988;28;20456;-88
2022/03/17 12:30:03;;;;;;;0.80;0.70;;;7.00;99.90;;;;;;5042530;28;20533;-88
2022/03/17 12:32:40;;;;;;;0.80;0.70;;;7.10;99.90;;;;;;5038826;28;20921;-87
2022/03/17 12:35:10;;;;;;;1.97;1.67;;;7.00;99.90;;;;;;5023237;28;20565;-87
2022/03/17 12:37:37;;;;;;;0.90;0.73;;;7.10;99.90;;;;;;5030435;28;20797;-87
2022/03/17 12:40:05;;;;;;;0.90;0.70;;;7.10;99.90;;;;;;5025177;28;20454;-85
2022/03/17 12:42:36;;;;;;;0.80;0.80;;;7.10;99.90;;;;;;5011091;28;20434;-87
2022/03/17 12:45:03;;;;;;;0.30;0.30;;;7.00;99.90;;;;;;5024726;28;20497;-87
2022/03/17 12:47:32;;;;;;;0.30;0.30;;;7.20;99.90;;;;;;5026530;28;20560;-87
2022/03/17 12:50:00;;;;;;;0.30;0.30;;;7.30;99.90;;;;;;5026896;28;20541;-87
2022/03/17 12:52:28;;;;;;;0.77;0.60;;;7.20;99.90;;;;;;5026964;28;20442;-86
2022/03/17 12:54:55;;;;;;;0.43;0.43;;;7.20;99.90;;;;;;5012855;28;20457;-87
2022/03/17 12:57:23;;;;;;;0.90;0.70;;;7.30;99.90;;;;;;5010379;28;20438;-87
2022/03/17 12:59:49;;;;;;;1.33;1.23;;;7.40;99.90;;;;;;5030120;28;20430;-87
2022/03/17 13:02:17;;;;;;;0.30;0.30;;;7.50;99.90;;;;;;5029094;28;20500;-87
2022/03/17 13:04:49;;;;;;;0.30;0.30;;;7.50;99.90;;;;;;5030186;28;20569;-88
2022/03/17 13:07:14;;;;;;;0.30;0.30;;;7.50;99.90;;;;;;5024286;28;20479;-89
2022/03/17 13:09:42;;;;;;;0.30;0.30;;;7.40;99.90;;;;;;5026817;28;21653;-88
2022/03/17 13:15:04;;;;;;;0.30;0.30;;;7.30;99.90;;;;;;5022299;28;20446;-90
2022/03/17 13:17:49;;;;;;;0.30;0.30;;;7.30;99.90;;;;;;5030163;28;20521;-91
2022/03/17 13:20:21;;;;;;;0.30;0.30;;;7.30;99.90;;;;;;5029632;28;20438;-89